Terminal Aerodrome Forecast
Issued by NWS Buffalo, NY

Home | Current Version | Previous Version | Text Only | Print | Product List | Glossary On
Versions: 1 2 3 4 5 6 7 8 9 10 11 12 13 14 15 16 17 18 19 20 21 22 23 24 25 26 27 28 29
783
FTUS41 KBUF 091146
TAFBUF
TAF
KBUF 091146Z 0912/1012 22008KT 6SM -SN BKN008
      TEMPO 0912/0914 SCT008 OVC015
     FM091400 24012KT P6SM VCSH OVC015
     FM092200 24012KT P6SM VCSH OVC025
     FM100300 23012G18KT P6SM VCSH OVC015
     FM100900 24012G18KT 2SM -SN BKN007=

USA.gov is the U.S. government's official web portal to all federal, state and local government web resources and services.